createdAt,value
2023-01-19T01:04:39.031Z,92.35
2023-01-19T01:05:38.911Z,92.86
2023-01-19T01:06:38.826Z,93.77
2023-01-19T01:07:38.739Z,94.41
2023-01-19T01:08:38.652Z,92.63
2023-01-19T01:09:38.559Z,93.26
2023-01-19T01:10:38.480Z,93.26
2023-01-19T01:11:38.383Z,92.83
2023-01-19T01:12:38.304Z,92.99
2023-01-19T01:13:38.222Z,93.19
2023-01-19T01:14:38.122Z,91.91
2023-01-19T01:15:38.595Z,93.36
2023-01-19T01:16:38.011Z,92.20
2023-01-19T01:17:37.873Z,92.64
2023-01-19T01:18:37.783Z,94.63
2023-01-19T01:19:37.691Z,92.40
2023-01-19T01:20:37.609Z,91.53
2023-01-19T01:21:37.523Z,92.41
2023-01-19T01:22:37.427Z,94.71
2023-01-19T01:23:37.334Z,93.67
2023-01-19T01:24:37.237Z,92.86
2023-01-19T01:25:37.143Z,90.27
2023-01-19T01:26:37.062Z,93.12
2023-01-19T01:27:36.975Z,93.84
2023-01-19T01:28:37.574Z,95.02
2023-01-19T01:29:36.799Z,93.03
2023-01-19T01:30:36.693Z,94.31
2023-01-19T01:31:36.703Z,91.95
2023-01-19T01:32:36.530Z,94.40
2023-01-19T01:33:40.060Z,91.24
2023-01-19T01:34:37.278Z,91.44
2023-01-19T01:35:36.157Z,91.57
2023-01-19T01:36:35.991Z,92.31
2023-01-19T01:37:35.856Z,90.61
2023-01-19T01:39:35.565Z,92.46
2023-01-19T03:07:26.709Z,86.80
2023-01-19T03:09:26.452Z,85.06
2023-01-19T03:10:26.333Z,86.16
2023-01-19T03:11:26.190Z,85.90
2023-01-19T03:12:26.060Z,83.98
2023-01-19T03:13:25.935Z,86.08
2023-01-19T03:14:25.817Z,84.36
2023-01-19T03:15:25.731Z,82.95
2023-01-19T03:16:25.645Z,86.42
2023-01-19T03:20:25.622Z,83.26
2023-01-19T03:59:19.969Z,75.65
2023-01-19T04:00:19.820Z,76.98
2023-01-19T04:01:19.821Z,72.66
2023-01-19T04:02:19.582Z,76.10
2023-01-19T04:03:19.424Z,74.94
2023-01-19T04:04:20.128Z,75.84
2023-01-19T04:05:19.194Z,74.00
2023-01-19T04:06:19.056Z,74.46
2023-01-19T04:07:18.928Z,75.28
2023-01-19T04:08:18.802Z,75.01
2023-01-19T04:09:20.126Z,72.76
2023-01-19T04:10:18.548Z,73.04
2023-01-19T04:11:18.423Z,74.21
2023-01-19T04:12:19.132Z,71.68
2023-01-19T04:13:18.194Z,71.10
2023-01-19T04:14:18.154Z,73.18
2023-01-19T04:15:17.964Z,74.91
2023-01-19T04:16:17.896Z,72.94
2023-01-19T04:17:17.730Z,71.93
2023-01-19T04:18:17.597Z,74.22
2023-01-19T04:19:17.481Z,72.19
2023-01-19T04:20:17.356Z,74.02
2023-01-19T04:21:17.242Z,72.99
2023-01-19T04:22:17.109Z,75.93
2023-01-19T04:23:17.637Z,71.20
2023-01-19T04:24:16.851Z,70.65
2023-01-19T04:25:16.732Z,72.29
2023-01-19T04:26:16.604Z,70.87
2023-01-19T04:27:16.473Z,71.86
2023-01-19T04:28:16.342Z,70.55
2023-01-19T04:29:16.202Z,72.31
2023-01-19T04:30:16.081Z,72.47
2023-01-19T04:31:15.984Z,73.36
2023-01-19T04:32:15.841Z,72.16
2023-01-19T04:33:15.705Z,72.21
2023-01-19T04:34:15.625Z,69.80
2023-01-19T04:39:15.644Z,74.06
2023-01-19T05:32:08.269Z,67.14
2023-01-19T05:33:08.144Z,66.93
2023-01-19T05:34:08.006Z,64.94
2023-01-19T05:35:07.891Z,67.95
2023-01-19T05:36:07.769Z,68.18
2023-01-19T05:37:07.630Z,65.92
2023-01-19T05:38:07.508Z,63.09
2023-01-19T05:39:07.368Z,63.64
2023-01-19T05:40:07.243Z,67.55
2023-01-19T05:41:07.143Z,67.79
2023-01-19T05:42:06.986Z,66.83
2023-01-19T05:43:06.864Z,64.07
2023-01-19T05:44:06.718Z,64.44
2023-01-19T05:45:06.601Z,66.51
2023-01-19T05:46:06.480Z,65.06
2023-01-19T05:47:06.352Z,67.46
2023-01-19T05:48:06.981Z,64.67
2023-01-19T05:49:06.160Z,64.68
2023-01-19T05:50:05.973Z,64.64
2023-01-19T05:51:05.861Z,67.36
2023-01-19T05:52:05.729Z,61.25
2023-01-19T05:53:05.614Z,62.82
2023-01-19T06:29:01.130Z,82.60
2023-01-19T06:30:01.143Z,82.39
2023-01-19T06:31:00.928Z,114.36
2023-01-19T06:32:00.747Z,89.46
2023-01-19T06:33:01.006Z,74.18
2023-01-19T06:35:07.184Z,25.00
2023-01-19T06:36:07.152Z,25.00
2023-01-19T06:37:07.867Z,25.00
2023-01-19T06:38:07.076Z,25.00
2023-01-19T06:39:09.880Z,25.00
2023-01-19T06:40:06.984Z,26.10
2023-01-19T06:41:06.927Z,27.01
2023-01-19T06:42:06.895Z,27.88
2023-01-19T06:43:06.830Z,28.20
2023-01-19T06:44:06.788Z,28.33
2023-01-19T06:45:06.738Z,28.27
2023-01-19T06:46:06.689Z,28.76
2023-01-19T06:47:15.671Z,29.17
2023-01-19T06:48:07.583Z,29.48
2023-01-19T06:49:06.535Z,29.54
2023-01-19T06:50:06.482Z,30.20
2023-01-19T06:51:06.428Z,29.63
2023-01-19T06:52:06.362Z,32.11
2023-01-19T06:53:06.314Z,33.38
2023-01-19T06:54:06.278Z,32.74
2023-01-19T06:55:06.887Z,38.84
2023-01-19T06:56:06.180Z,36.31
2023-01-19T06:57:06.119Z,35.03
2023-01-19T06:58:06.090Z,31.95
2023-01-19T06:59:06.009Z,34.66
2023-01-19T07:00:05.950Z,34.77
2023-01-19T07:01:06.063Z,35.54
2023-01-19T07:02:26.929Z,36.60
2023-01-19T07:03:06.831Z,36.73
2023-01-19T07:04:05.709Z,36.67
2023-01-19T07:05:05.655Z,36.79
2023-01-19T07:06:05.618Z,36.58
2023-01-19T07:07:05.527Z,36.34
2023-01-19T07:14:05.883Z,42.16
2023-01-19T07:28:05.546Z,56.09
2023-01-19T12:53:59.478Z,55.20
2023-01-19T12:54:59.430Z,55.12
2023-01-19T12:55:59.402Z,54.75
2023-01-19T12:56:59.360Z,53.81
2023-01-19T12:57:59.355Z,54.09
2023-01-19T12:58:59.328Z,53.96
2023-01-19T12:59:59.274Z,53.25
2023-01-19T13:00:59.329Z,52.25
2023-01-19T13:09:58.860Z,58.28
2023-01-19T13:10:58.853Z,59.34
2023-01-19T13:12:01.018Z,57.24
2023-01-19T13:12:58.860Z,57.45
2023-01-19T13:20:58.864Z,57.55
2023-01-19T13:21:58.845Z,57.34
2023-01-19T14:03:59.278Z,43.52
2023-01-19T14:04:59.337Z,42.94
2023-01-19T14:05:59.276Z,41.13
2023-01-19T14:06:59.282Z,43.48
2023-01-19T14:07:59.323Z,44.01
2023-01-19T14:08:59.233Z,41.14
2023-01-19T14:09:59.217Z,42.34
2023-01-19T14:10:59.211Z,41.95
2023-01-19T14:12:59.769Z,40.26
2023-01-19T14:13:59.095Z,45.56
2023-01-19T14:14:59.082Z,41.65
2023-01-19T14:15:59.042Z,42.25
2023-01-19T14:16:58.957Z,43.00
2023-01-19T14:17:58.919Z,42.22
2023-01-19T14:18:58.993Z,40.96
2023-01-19T14:19:58.928Z,44.86
2023-01-19T14:20:58.794Z,40.72
2023-01-19T14:21:58.848Z,44.08
2023-01-19T14:22:58.723Z,42.97
2023-01-19T14:23:58.697Z,38.84
2023-01-19T14:24:58.665Z,43.26
2023-01-19T14:25:58.630Z,40.25
2023-01-19T14:26:58.593Z,41.60
2023-01-19T14:27:58.541Z,42.56
2023-01-19T14:28:58.504Z,42.00
2023-01-19T14:29:58.471Z,40.38
2023-01-19T14:30:58.552Z,40.56
2023-01-19T14:31:58.403Z,41.41
2023-01-19T14:32:58.328Z,41.67
2023-01-19T14:33:58.316Z,42.45
2023-01-19T14:34:58.312Z,39.15
2023-01-19T14:35:58.209Z,42.55
2023-01-19T14:36:58.178Z,38.83
2023-01-19T14:37:58.125Z,39.65
2023-01-19T14:38:58.149Z,38.16
2023-01-19T14:39:58.107Z,41.90
2023-01-19T14:40:57.993Z,41.70
2023-01-19T14:41:57.947Z,41.45
2023-01-19T14:42:57.935Z,41.58
2023-01-19T14:43:57.890Z,41.94
2023-01-19T14:44:57.829Z,40.99
2023-01-19T14:45:57.815Z,38.13
2023-01-19T14:46:57.754Z,42.40
2023-01-19T14:47:57.805Z,40.31
2023-01-19T14:48:57.681Z,39.78
2023-01-19T14:49:57.642Z,42.68
2023-01-19T14:51:03.131Z,41.39
2023-01-19T14:51:58.540Z,41.63
2023-01-19T14:52:57.564Z,41.52
2023-01-19T14:53:58.894Z,39.54
2023-01-19T14:54:57.425Z,40.28
2023-01-19T14:55:57.389Z,40.23
2023-01-19T14:56:57.340Z,41.14
2023-01-19T14:57:57.281Z,38.20
2023-01-19T14:58:57.270Z,40.80
2023-01-19T14:59:57.186Z,38.58
2023-01-19T15:00:57.212Z,38.76
2023-01-19T15:01:57.308Z,37.35
2023-01-19T15:02:57.061Z,37.64
2023-01-19T15:03:57.090Z,39.18
2023-01-19T15:04:56.961Z,37.45
2023-01-19T15:05:56.903Z,39.82
2023-01-19T15:06:56.858Z,39.92
2023-01-19T15:07:56.801Z,40.13
2023-01-19T15:08:56.775Z,41.47
2023-01-19T15:09:56.714Z,38.50
2023-01-19T15:10:56.660Z,37.93
2023-01-19T15:11:56.612Z,38.59
2023-01-19T15:12:56.588Z,39.78
2023-01-19T15:13:56.533Z,40.30
2023-01-19T15:14:56.515Z,37.28
2023-01-19T15:15:56.462Z,39.55
2023-01-19T15:16:56.368Z,38.97
2023-01-19T15:17:56.494Z,39.44
2023-01-19T15:18:56.271Z,40.61
2023-01-19T15:19:56.257Z,40.91
2023-01-19T15:20:56.199Z,38.78
2023-01-19T15:21:56.128Z,38.32
2023-01-19T15:22:56.078Z,36.28
2023-01-19T15:23:56.070Z,39.24
2023-01-19T15:24:55.974Z,38.94
2023-01-19T15:25:55.932Z,41.05
2023-01-19T15:26:55.883Z,37.13
2023-01-19T15:27:55.843Z,39.74
2023-01-19T15:28:55.795Z,38.84
2023-01-19T15:29:55.732Z,37.16
2023-01-19T15:30:55.718Z,37.90
2023-01-19T15:31:55.658Z,38.67
2023-01-19T15:32:55.590Z,37.77
2023-01-19T15:33:55.545Z,37.78
2023-01-19T15:41:56.069Z,39.20
2023-01-19T15:48:55.558Z,39.16
2023-01-19T16:12:53.656Z,39.64
2023-01-19T16:13:53.604Z,39.65
2023-01-19T16:14:53.626Z,38.90
2023-01-19T16:15:53.510Z,39.24
2023-01-19T16:16:53.531Z,38.10
2023-01-19T16:17:53.417Z,38.84
2023-01-19T16:18:53.371Z,36.60
2023-01-19T16:19:53.329Z,38.54
2023-01-19T16:20:53.296Z,41.32
2023-01-19T16:21:53.243Z,38.64
2023-01-19T16:22:54.981Z,39.64
2023-01-19T16:23:53.174Z,42.76
2023-01-19T16:24:53.218Z,39.79
2023-01-19T16:25:53.084Z,39.89
2023-01-19T16:26:53.023Z,36.92
2023-01-19T16:27:52.975Z,40.66
2023-01-19T16:28:52.930Z,40.25
2023-01-19T16:29:52.887Z,39.46
2023-01-19T16:30:52.875Z,37.78
2023-01-19T16:31:52.838Z,40.73
2023-01-19T16:32:52.742Z,38.56
2023-01-19T16:33:52.709Z,37.94
2023-01-19T16:34:52.640Z,37.66
2023-01-19T16:35:52.622Z,37.28
2023-01-19T16:36:52.577Z,35.18
2023-01-19T16:37:52.527Z,38.88
2023-01-19T16:38:52.489Z,37.62
2023-01-19T16:39:52.470Z,39.80
2023-01-19T16:40:52.503Z,38.40
2023-01-19T16:41:52.369Z,38.23
2023-01-19T16:42:52.333Z,37.76
2023-01-19T16:43:52.284Z,39.52
2023-01-19T16:44:52.243Z,37.86
2023-01-19T16:45:52.229Z,39.00
2023-01-19T16:46:52.235Z,38.03
2023-01-19T16:47:52.145Z,39.46
2023-01-19T16:48:52.104Z,39.05
2023-01-19T16:49:52.067Z,38.71
2023-01-19T16:50:52.024Z,38.85
2023-01-19T16:51:51.949Z,39.49
2023-01-19T16:52:51.919Z,40.19
2023-01-19T16:53:51.860Z,39.21
2023-01-19T16:54:51.841Z,37.47
2023-01-19T16:55:51.777Z,38.24
2023-01-19T16:56:51.735Z,39.27
2023-01-19T16:57:51.697Z,37.82
2023-01-19T16:58:51.649Z,37.87
2023-01-19T16:59:51.609Z,40.08
2023-01-19T17:00:51.632Z,40.46
2023-01-19T17:01:51.625Z,38.14
2023-01-19T17:02:51.487Z,41.04
2023-01-19T17:03:51.423Z,38.65
2023-01-19T17:04:51.378Z,36.40
2023-01-19T17:05:51.422Z,39.94
2023-01-19T17:06:51.292Z,39.13
2023-01-19T17:07:51.282Z,38.87
2023-01-19T17:08:51.213Z,38.34
2023-01-19T17:09:51.204Z,39.88
2023-01-19T17:10:51.151Z,38.03
2023-01-19T17:11:51.086Z,38.18
2023-01-19T17:12:51.027Z,38.85
2023-01-19T17:13:51.046Z,35.66
2023-01-19T17:14:50.942Z,36.99
2023-01-19T17:15:50.889Z,37.78
2023-01-19T17:16:50.934Z,39.37
2023-01-19T17:17:50.814Z,38.57
2023-01-19T17:18:50.767Z,36.90
2023-01-19T17:19:50.736Z,38.41
2023-01-19T17:20:50.684Z,37.91
2023-01-19T17:21:50.647Z,37.75
2023-01-19T17:22:50.606Z,38.94
2023-01-19T17:23:50.566Z,38.31
2023-01-19T17:24:50.514Z,39.79
2023-01-19T17:25:50.488Z,38.33
2023-01-19T17:26:50.453Z,36.42
2023-01-19T17:27:50.407Z,37.89
2023-01-19T17:28:50.599Z,38.28
2023-01-19T17:29:50.375Z,36.55
2023-01-19T17:30:50.368Z,38.23
2023-01-19T17:31:50.247Z,35.68
2023-01-19T17:32:50.213Z,36.80
2023-01-19T17:33:50.164Z,38.78
2023-01-19T17:34:50.125Z,36.82
2023-01-19T17:35:50.094Z,37.18
2023-01-19T17:36:50.038Z,37.46
2023-01-19T17:37:50.000Z,37.80
2023-01-19T17:38:49.960Z,39.03
2023-01-19T17:39:49.930Z,40.38
2023-01-19T17:40:49.889Z,38.98
2023-01-19T17:41:50.396Z,37.03
2023-01-19T17:42:50.121Z,38.11
2023-01-19T17:43:49.770Z,37.77
2023-01-19T17:44:50.627Z,37.42
2023-01-19T17:45:49.697Z,39.10
2023-01-19T17:46:49.672Z,37.72
2023-01-19T17:47:49.604Z,39.42
2023-01-19T17:48:49.562Z,37.15
2023-01-19T17:49:49.534Z,38.68
2023-01-19T17:50:49.491Z,38.58
2023-01-19T17:51:49.499Z,36.90
2023-01-19T17:52:49.399Z,38.09
2023-01-19T17:53:49.358Z,38.02
2023-01-19T17:54:49.323Z,36.39
2023-01-19T17:55:50.119Z,37.86
2023-01-19T17:56:49.622Z,36.24
2023-01-19T17:57:49.180Z,37.06
2023-01-19T17:58:49.206Z,37.22
2023-01-19T17:59:49.082Z,37.20
2023-01-19T18:00:49.110Z,38.64
2023-01-19T18:01:49.095Z,34.94
2023-01-19T18:02:49.008Z,39.04
2023-01-19T18:03:48.905Z,35.98
2023-01-19T18:04:48.872Z,36.32
2023-01-19T18:05:48.876Z,35.50
2023-01-19T18:06:48.774Z,37.90
2023-01-19T18:07:48.729Z,34.36
2023-01-19T18:08:48.684Z,40.14
2023-01-19T18:09:48.642Z,36.55
2023-01-19T18:10:48.585Z,37.00
2023-01-19T18:11:48.539Z,38.48
2023-01-19T18:12:48.489Z,39.20
2023-01-19T18:13:48.475Z,36.26
2023-01-19T18:14:48.407Z,37.15
2023-01-19T18:15:48.384Z,36.40
2023-01-19T18:16:48.332Z,37.38
2023-01-19T18:17:48.279Z,35.05
2023-01-19T18:18:48.232Z,39.07
2023-01-19T18:19:48.197Z,35.36
2023-01-19T18:20:48.140Z,35.08
2023-01-19T18:21:48.086Z,37.15
2023-01-19T18:22:48.043Z,38.16
2023-01-19T18:23:47.997Z,36.38
2023-01-19T18:24:47.945Z,35.75
2023-01-19T18:25:47.904Z,34.65
2023-01-19T18:26:48.683Z,33.76
2023-01-19T18:27:47.912Z,37.54
2023-01-19T18:28:47.781Z,37.31
2023-01-19T18:29:47.733Z,37.05
2023-01-19T18:30:47.830Z,39.13
2023-01-19T18:31:47.653Z,36.30
2023-01-19T18:32:47.651Z,36.10
2023-01-19T18:33:47.597Z,37.20
2023-01-19T18:34:47.567Z,35.07
2023-01-19T18:35:47.608Z,37.30
2023-01-19T18:36:48.127Z,33.82
2023-01-19T18:37:47.487Z,35.56
2023-01-19T18:38:47.466Z,38.00
2023-01-19T18:39:47.438Z,35.85
2023-01-19T18:40:47.419Z,34.25
2023-01-19T18:41:47.399Z,37.24
2023-01-19T18:42:47.370Z,36.24
2023-01-19T18:43:47.369Z,36.19
2023-01-19T18:44:47.316Z,36.48
2023-01-19T18:45:47.288Z,36.45
2023-01-19T18:46:47.265Z,35.11
2023-01-19T18:47:47.316Z,35.37
2023-01-19T18:48:47.228Z,33.71
2023-01-19T18:49:47.196Z,35.20
2023-01-19T18:50:47.183Z,34.45
2023-01-19T18:51:47.165Z,34.71
2023-01-19T18:52:47.212Z,34.68
2023-01-19T18:53:47.106Z,34.33
2023-01-19T18:54:47.088Z,35.26
2023-01-19T18:55:47.052Z,34.14
2023-01-19T18:56:47.041Z,36.01
2023-01-19T18:57:47.078Z,36.32
2023-01-19T18:58:47.083Z,35.67
2023-01-19T18:59:46.984Z,36.53
2023-01-19T19:00:46.961Z,34.31
2023-01-19T19:01:47.010Z,36.98
2023-01-19T19:02:46.929Z,37.53
2023-01-19T19:03:46.923Z,36.43
2023-01-19T19:04:46.912Z,35.63
2023-01-19T19:05:47.935Z,35.76
2023-01-19T19:06:46.822Z,34.67
2023-01-19T19:07:46.799Z,35.89
2023-01-19T19:08:46.778Z,36.25
2023-01-19T19:09:46.708Z,34.34
2023-01-19T19:10:46.656Z,35.68
2023-01-19T19:11:46.645Z,36.63
2023-01-19T19:12:46.566Z,37.52
2023-01-19T19:13:46.529Z,36.52
2023-01-19T19:14:46.470Z,34.68
2023-01-19T19:15:46.521Z,36.80
2023-01-19T19:16:46.389Z,36.45
2023-01-19T19:17:46.350Z,34.64
2023-01-19T19:18:46.313Z,35.36
2023-01-19T19:19:46.303Z,35.39
2023-01-19T19:20:46.216Z,38.42
2023-01-19T19:21:46.164Z,35.00
2023-01-19T19:22:46.113Z,34.45
2023-01-19T19:23:46.074Z,36.73
2023-01-19T19:24:46.027Z,34.26
2023-01-19T19:25:45.974Z,33.70
2023-01-19T19:26:45.940Z,34.39
2023-01-19T19:27:45.881Z,33.82
2023-01-19T19:28:45.858Z,34.25
2023-01-19T19:29:45.835Z,33.28
2023-01-19T19:30:45.876Z,35.99
2023-01-19T19:31:45.909Z,34.93
2023-01-19T19:32:46.651Z,34.89
2023-01-19T19:33:45.751Z,33.49
2023-01-19T19:34:45.715Z,36.01
2023-01-19T19:35:45.732Z,34.85
2023-01-19T19:36:46.642Z,34.76
2023-01-19T19:37:45.675Z,32.32
2023-01-19T19:38:45.660Z,37.28
2023-01-19T19:39:45.652Z,33.87
2023-01-19T19:40:45.625Z,35.93
2023-01-19T19:41:46.161Z,35.03
2023-01-19T19:42:45.626Z,34.60
2023-01-19T19:43:45.565Z,34.92
2023-01-19T19:44:45.553Z,34.71
2023-01-19T19:45:45.528Z,33.48
2023-01-19T19:46:45.567Z,36.91
2023-01-19T19:47:45.484Z,35.02
2023-01-19T19:48:45.472Z,35.48
2023-01-19T19:49:45.464Z,37.08
2023-01-19T19:50:45.436Z,34.60
2023-01-19T19:51:45.417Z,34.22
2023-01-19T19:53:45.389Z,32.48
2023-01-19T19:54:45.361Z,34.25
2023-01-19T19:55:45.351Z,37.64
2023-01-19T19:56:45.324Z,35.22
2023-01-19T19:57:45.307Z,34.78
2023-01-19T19:58:45.282Z,34.64
2023-01-19T19:59:45.261Z,35.12
2023-01-19T20:05:45.665Z,35.16
2023-01-19T22:56:41.566Z,32.72
2023-01-19T22:57:41.547Z,32.55
2023-01-19T22:58:41.544Z,32.28
2023-01-19T22:59:41.588Z,29.52
2023-01-19T23:00:41.591Z,30.73
2023-01-19T23:01:41.574Z,29.73
2023-01-19T23:02:41.502Z,33.13
2023-01-19T23:03:41.489Z,32.68
2023-01-19T23:04:41.464Z,34.19
2023-01-19T23:05:41.488Z,33.83
2023-01-19T23:07:41.433Z,32.56
2023-01-19T23:09:41.427Z,32.92
